createdAt,value
2022-11-17T00:00:45.874Z,10.20
2022-11-17T00:03:15.651Z,10.20
2022-11-17T00:05:43.773Z,10.20
2022-11-17T00:08:10.607Z,10.20
2022-11-17T00:10:37.314Z,10.20
2022-11-17T00:13:22.315Z,10.20
2022-11-17T00:15:49.028Z,10.20
2022-11-17T00:18:34.197Z,10.20
2022-11-17T00:21:21.085Z,10.30
2022-11-17T00:23:49.618Z,10.20
2022-11-17T00:26:19.592Z,10.20
2022-11-17T00:28:46.498Z,10.20
2022-11-17T00:31:33.414Z,10.20
2022-11-17T00:34:06.667Z,10.20
2022-11-17T00:36:42.185Z,10.10
2022-11-17T00:39:11.516Z,10.20
2022-11-17T00:41:38.227Z,10.20
2022-11-17T00:44:05.436Z,10.20
2022-11-17T00:46:32.981Z,10.20
2022-11-17T00:49:00.632Z,10.20
2022-11-17T00:51:27.715Z,10.20
2022-11-17T00:53:54.562Z,10.20
2022-11-17T00:56:23.072Z,10.20
2022-11-17T00:58:50.127Z,10.30
2022-11-17T01:01:16.868Z,10.20
2022-11-17T01:03:44.559Z,10.20
2022-11-17T01:06:18.852Z,10.20
2022-11-17T01:08:46.790Z,10.20
2022-11-17T01:11:17.935Z,10.20
2022-11-17T01:13:47.958Z,10.20
2022-11-17T01:16:18.720Z,10.20
2022-11-17T01:18:47.631Z,10.20
2022-11-17T01:21:17.477Z,10.20
2022-11-17T01:23:47.691Z,10.20
2022-11-17T01:26:21.443Z,10.20
2022-11-17T01:28:49.828Z,10.30
2022-11-17T01:31:39.339Z,10.20
2022-11-17T01:34:07.240Z,10.20
2022-11-17T01:36:56.205Z,10.30
2022-11-17T01:39:29.957Z,10.30
2022-11-17T01:41:58.131Z,10.30
2022-11-17T01:45:03.048Z,10.30
2022-11-17T01:47:44.799Z,10.40
2022-11-17T01:50:37.243Z,10.40
2022-11-17T01:53:16.787Z,10.40
2022-11-17T01:55:57.879Z,10.40
2022-11-17T01:58:32.528Z,10.40
2022-11-17T02:00:59.755Z,10.50
2022-11-17T02:03:28.190Z,10.50
2022-11-17T02:06:05.554Z,10.40
2022-11-17T02:08:37.089Z,10.50
2022-11-17T02:11:11.419Z,10.50
2022-11-17T02:13:40.683Z,10.50
2022-11-17T02:16:16.811Z,10.50
2022-11-17T02:18:46.739Z,10.60
2022-11-17T02:21:44.267Z,10.60
2022-11-17T02:24:31.147Z,10.50
2022-11-17T02:27:03.508Z,10.50
2022-11-17T02:30:00.513Z,10.60
2022-11-17T02:32:56.458Z,10.60
2022-11-17T02:35:50.856Z,10.60
2022-11-17T02:38:34.628Z,10.60
2022-11-17T02:41:25.056Z,10.60
2022-11-17T02:44:29.831Z,10.60
2022-11-17T02:47:23.969Z,10.60
2022-11-17T02:49:58.879Z,10.60
2022-11-17T02:52:29.080Z,10.60
2022-11-17T02:55:09.244Z,10.60
2022-11-17T02:57:39.425Z,10.50
2022-11-17T03:00:14.798Z,10.70
2022-11-17T03:02:53.948Z,10.60
2022-11-17T03:05:44.242Z,10.70
2022-11-17T03:08:31.595Z,10.70
2022-11-17T03:11:05.022Z,10.70
2022-11-17T03:13:40.852Z,10.70
2022-11-17T03:16:39.355Z,10.70
2022-11-17T03:19:24.050Z,10.70
2022-11-17T03:22:07.745Z,10.70
2022-11-17T03:24:43.192Z,10.70
2022-11-17T03:27:35.688Z,10.70
2022-11-17T03:30:25.965Z,10.70
2022-11-17T03:33:02.172Z,10.80
2022-11-17T03:35:33.733Z,10.70
2022-11-17T03:38:10.479Z,10.70
2022-11-17T03:40:50.375Z,10.70
2022-11-17T03:43:21.138Z,10.70
2022-11-17T03:45:54.013Z,10.80
2022-11-17T03:48:41.029Z,10.70
2022-11-17T03:51:26.761Z,10.80
2022-11-17T03:53:55.435Z,10.70
2022-11-17T03:57:21.650Z,10.80
2022-11-17T04:00:10.200Z,10.80
2022-11-17T04:02:41.701Z,10.80
2022-11-17T04:05:10.547Z,10.70
2022-11-17T04:07:43.200Z,10.80
2022-11-17T04:10:16.687Z,10.80
2022-11-17T04:13:01.962Z,10.80
2022-11-17T04:15:47.923Z,10.80
2022-11-17T04:18:15.056Z,10.70
2022-11-17T04:20:42.429Z,10.70
2022-11-17T04:23:15.122Z,10.80
2022-11-17T04:26:06.739Z,10.80
2022-11-17T04:28:37.076Z,10.80
2022-11-17T04:31:25.296Z,10.80
2022-11-17T04:34:02.935Z,10.80
2022-11-17T04:36:39.512Z,10.80
2022-11-17T04:39:06.903Z,10.80
2022-11-17T04:41:54.272Z,10.80
2022-11-17T04:44:31.148Z,10.80
2022-11-17T04:46:58.624Z,10.80
2022-11-17T04:49:26.519Z,10.80
2022-11-17T04:51:54.061Z,10.80
2022-11-17T04:54:24.778Z,10.80
2022-11-17T04:56:53.438Z,10.80
2022-11-17T04:59:20.432Z,10.70
2022-11-17T05:01:50.088Z,10.80
2022-11-17T05:04:40.296Z,10.80
2022-11-17T05:07:08.833Z,10.80
2022-11-17T05:09:36.248Z,10.80
2022-11-17T05:12:22.258Z,10.80
2022-11-17T05:14:50.627Z,10.80
2022-11-17T05:17:17.993Z,10.80
2022-11-17T05:19:47.794Z,10.70
2022-11-17T05:22:37.483Z,10.80
2022-11-17T05:25:05.528Z,10.80
2022-11-17T05:27:36.402Z,10.70
2022-11-17T05:30:06.583Z,10.80
2022-11-17T05:32:33.320Z,10.80
2022-11-17T05:35:00.022Z,10.80
2022-11-17T05:37:26.819Z,10.80
2022-11-17T05:39:53.694Z,10.70
2022-11-17T05:42:20.392Z,10.80
2022-11-17T05:44:52.180Z,10.70
2022-11-17T05:47:18.876Z,10.80
2022-11-17T05:49:45.570Z,10.80
2022-11-17T05:52:12.390Z,10.80
2022-11-17T05:54:39.075Z,10.80
2022-11-17T05:57:14.341Z,10.80
2022-11-17T06:00:00.034Z,10.80
2022-11-17T06:02:38.515Z,10.70
2022-11-17T06:05:05.999Z,10.80
2022-11-17T06:07:34.477Z,10.80
2022-11-17T06:10:01.177Z,10.80
2022-11-17T06:12:27.926Z,10.80
2022-11-17T06:14:54.591Z,10.80
2022-11-17T06:17:32.528Z,10.80
2022-11-17T06:20:08.357Z,10.80
2022-11-17T06:22:36.279Z,10.80
2022-11-17T06:25:05.062Z,10.90
2022-11-17T06:27:33.129Z,10.90
2022-11-17T06:30:04.068Z,10.90
2022-11-17T06:32:35.143Z,10.80
2022-11-17T06:35:08.343Z,10.90
2022-11-17T06:37:35.113Z,10.90
2022-11-17T06:40:01.843Z,10.90
2022-11-17T06:42:46.875Z,10.90
2022-11-17T06:45:13.767Z,10.90
2022-11-17T06:47:40.559Z,10.90
2022-11-17T06:50:08.547Z,11.00
2022-11-17T06:52:35.273Z,10.90
2022-11-17T06:55:06.202Z,11.00
2022-11-17T06:57:32.970Z,11.00
2022-11-17T06:59:59.729Z,11.00
2022-11-17T07:02:26.535Z,11.00
2022-11-17T07:04:53.339Z,10.90
2022-11-17T07:07:20.166Z,10.90
2022-11-17T07:09:47.105Z,10.90
2022-11-17T07:12:17.198Z,10.90
2022-11-17T07:14:45.170Z,10.90
2022-11-17T07:17:11.987Z,10.90
2022-11-17T07:19:38.818Z,10.90
2022-11-17T07:22:05.577Z,10.90
2022-11-17T07:24:32.336Z,10.90
2022-11-17T07:27:00.309Z,10.90
2022-11-17T07:29:28.831Z,10.80
2022-11-17T07:31:55.623Z,10.90
2022-11-17T07:34:23.267Z,10.80
2022-11-17T07:36:49.954Z,10.90
2022-11-17T07:39:21.201Z,10.90
2022-11-17T07:41:49.025Z,10.90
2022-11-17T07:44:15.763Z,10.90
2022-11-17T07:46:42.519Z,10.80
2022-11-17T07:49:09.323Z,10.80
2022-11-17T07:51:36.054Z,10.70
2022-11-17T07:54:02.849Z,10.80
2022-11-17T07:56:29.695Z,10.80
2022-11-17T07:58:56.464Z,10.80
2022-11-17T08:01:23.415Z,10.80
2022-11-17T08:03:50.338Z,10.70
2022-11-17T08:06:17.342Z,10.70
2022-11-17T08:08:44.262Z,10.70
2022-11-17T08:11:14.271Z,10.70
2022-11-17T08:13:42.425Z,10.70
2022-11-17T08:16:10.330Z,10.70
2022-11-17T08:18:37.824Z,10.70
2022-11-17T08:21:15.260Z,10.60
2022-11-17T08:23:42.711Z,10.60
2022-11-17T08:26:11.823Z,10.60
2022-11-17T08:28:39.098Z,10.60
2022-11-17T08:31:08.773Z,10.60
2022-11-17T08:33:35.941Z,10.60
2022-11-17T08:36:04.919Z,10.60
2022-11-17T08:38:31.770Z,10.70
2022-11-17T08:41:03.396Z,10.70
2022-11-17T08:43:30.599Z,10.70
2022-11-17T08:45:57.541Z,10.70
2022-11-17T08:48:25.405Z,10.60
2022-11-17T08:50:52.461Z,10.60
2022-11-17T08:53:23.752Z,10.60
2022-11-17T08:55:52.269Z,10.60
2022-11-17T08:58:19.109Z,10.60
2022-11-17T09:00:47.362Z,10.60
2022-11-17T09:03:15.101Z,10.60
2022-11-17T09:05:49.764Z,10.60
2022-11-17T09:08:43.845Z,10.50
2022-11-17T09:11:10.312Z,10.60
2022-11-17T09:13:37.793Z,10.60
2022-11-17T09:16:11.349Z,10.60
2022-11-17T09:18:40.632Z,10.60
2022-11-17T09:21:15.637Z,10.70
2022-11-17T09:23:43.514Z,10.60
2022-11-17T09:26:16.188Z,10.60
2022-11-17T09:28:44.569Z,10.60
2022-11-17T09:31:21.593Z,10.60
2022-11-17T09:33:48.937Z,10.60
2022-11-17T09:36:17.137Z,10.60
2022-11-17T09:38:47.008Z,10.60
2022-11-17T09:41:16.709Z,10.60
2022-11-17T09:44:18.151Z,10.60
2022-11-17T09:46:53.755Z,10.60
2022-11-17T09:49:53.664Z,10.60
2022-11-17T09:53:02.423Z,10.60
2022-11-17T09:55:42.734Z,10.60
2022-11-17T09:58:39.852Z,10.60
2022-11-17T10:01:11.940Z,10.70
2022-11-17T10:03:45.654Z,10.60
2022-11-17T10:06:29.117Z,10.70
2022-11-17T10:09:38.876Z,10.60
2022-11-17T10:12:21.254Z,10.60
2022-11-17T10:14:54.004Z,10.60
2022-11-17T10:17:20.754Z,10.60
2022-11-17T10:19:47.660Z,10.60
2022-11-17T10:22:33.657Z,10.60
2022-11-17T10:25:00.513Z,10.60
2022-11-17T10:27:37.396Z,10.60
2022-11-17T10:30:22.666Z,10.60
2022-11-17T10:33:01.759Z,10.60
2022-11-17T10:35:33.761Z,10.50
2022-11-17T10:38:21.806Z,10.50
2022-11-17T10:40:54.562Z,10.60
2022-11-17T10:43:39.698Z,10.60
2022-11-17T10:46:17.008Z,10.60
2022-11-17T10:49:04.931Z,10.60
2022-11-17T10:51:34.018Z,10.60
2022-11-17T10:54:17.285Z,10.50
2022-11-17T10:56:49.745Z,10.60
2022-11-17T10:59:34.527Z,10.60
2022-11-17T11:02:38.081Z,10.60
2022-11-17T11:05:14.004Z,10.60
2022-11-17T11:07:42.553Z,10.60
2022-11-17T11:10:23.611Z,10.50
2022-11-17T11:13:29.450Z,10.50
2022-11-17T11:15:56.401Z,10.50
2022-11-17T11:18:23.349Z,10.50
2022-11-17T11:21:29.001Z,10.50
2022-11-17T11:24:12.509Z,10.50
2022-11-17T11:27:28.130Z,10.50
2022-11-17T11:30:20.893Z,10.50
2022-11-17T11:33:24.043Z,10.50
2022-11-17T11:36:16.648Z,10.50
2022-11-17T11:39:06.636Z,10.50
2022-11-17T11:42:21.794Z,10.50
2022-11-17T11:45:06.957Z,10.50
2022-11-17T11:47:48.712Z,10.50
2022-11-17T11:50:22.617Z,10.50
2022-11-17T11:53:04.089Z,10.50
2022-11-17T11:55:36.442Z,10.40
2022-11-17T11:59:01.202Z,10.40
2022-11-17T12:01:39.565Z,10.50
2022-11-17T12:05:00.141Z,10.50
2022-11-17T12:08:14.305Z,10.40
2022-11-17T12:10:57.762Z,10.50
2022-11-17T12:13:25.930Z,10.50
2022-11-17T12:16:17.654Z,10.50
2022-11-17T12:18:44.416Z,10.50
2022-11-17T12:21:23.274Z,10.50
2022-11-17T12:24:25.481Z,10.50
2022-11-17T12:26:52.355Z,10.40
2022-11-17T12:29:22.131Z,10.40
2022-11-17T12:31:55.620Z,10.40
2022-11-17T12:34:37.202Z,10.40
2022-11-17T12:37:15.834Z,10.50
2022-11-17T12:40:01.934Z,10.40
2022-11-17T12:42:31.831Z,10.50
2022-11-17T12:45:12.833Z,10.40
2022-11-17T12:48:31.861Z,10.50
2022-11-17T12:51:06.266Z,10.50
2022-11-17T12:54:12.837Z,10.50
2022-11-17T12:57:09.795Z,10.50
2022-11-17T12:59:59.985Z,10.40
2022-11-17T13:02:59.151Z,10.40
2022-11-17T13:05:30.269Z,10.40
2022-11-17T13:08:13.557Z,10.40
2022-11-17T13:10:41.636Z,10.50
2022-11-17T13:13:24.397Z,10.40
2022-11-17T13:16:00.957Z,10.50
2022-11-17T13:18:40.115Z,10.50
2022-11-17T13:21:25.248Z,10.50
2022-11-17T13:23:53.618Z,10.50
2022-11-17T13:26:38.020Z,10.50
2022-11-17T13:29:12.549Z,10.50
2022-11-17T13:31:39.660Z,10.50
2022-11-17T13:34:17.589Z,10.50
2022-11-17T13:37:00.215Z,10.50
2022-11-17T13:39:28.690Z,10.50
2022-11-17T13:41:58.163Z,10.50
2022-11-17T13:44:28.434Z,10.50
2022-11-17T13:46:56.577Z,10.50
2022-11-17T13:49:39.168Z,10.50
2022-11-17T13:52:35.264Z,10.50
2022-11-17T13:55:17.606Z,10.40
2022-11-17T13:58:23.321Z,10.50
2022-11-17T14:00:57.757Z,10.50
2022-11-17T14:03:31.899Z,10.50
2022-11-17T14:05:58.624Z,10.50
2022-11-17T14:08:31.836Z,10.50
2022-11-17T14:11:21.497Z,10.50
2022-11-17T14:14:01.280Z,10.60
2022-11-17T14:16:38.046Z,10.60
2022-11-17T14:19:33.564Z,10.60
2022-11-17T14:22:09.097Z,10.60
2022-11-17T14:24:37.283Z,10.50
2022-11-17T14:27:14.725Z,10.50
2022-11-17T14:29:41.465Z,10.60
2022-11-17T14:32:08.161Z,10.60
2022-11-17T14:34:34.919Z,10.60
2022-11-17T14:37:04.634Z,10.70
2022-11-17T14:39:34.348Z,10.70
2022-11-17T14:42:01.218Z,10.70
2022-11-17T14:44:28.105Z,10.70
2022-11-17T14:46:54.838Z,10.70
2022-11-17T14:49:21.572Z,10.70
2022-11-17T14:51:50.006Z,10.70
2022-11-17T14:54:16.766Z,10.70
2022-11-17T14:56:43.738Z,10.70
2022-11-17T14:59:11.431Z,10.80
2022-11-17T15:01:41.179Z,10.70
2022-11-17T15:04:34.492Z,10.80
2022-11-17T15:06:55.281Z,10.80
2022-11-17T15:09:22.101Z,10.80
2022-11-17T15:11:48.968Z,10.80
2022-11-17T15:14:16.196Z,10.90
2022-11-17T15:16:43.323Z,10.90
2022-11-17T15:19:10.080Z,10.80
2022-11-17T15:21:36.879Z,10.80
2022-11-17T15:24:06.597Z,10.80
2022-11-17T15:26:34.081Z,10.80
2022-11-17T15:29:01.016Z,10.80
2022-11-17T15:31:29.106Z,10.90
2022-11-17T15:33:55.869Z,10.80
2022-11-17T15:36:23.568Z,10.90
2022-11-17T15:38:50.564Z,10.80
2022-11-17T15:41:17.385Z,10.90
2022-11-17T15:43:45.127Z,10.90
2022-11-17T15:46:17.422Z,10.80
2022-11-17T15:48:48.959Z,10.80
2022-11-17T15:51:21.487Z,10.90
2022-11-17T15:53:50.891Z,10.80
2022-11-17T15:56:24.497Z,10.80
2022-11-17T15:59:03.209Z,10.80
2022-11-17T16:01:35.174Z,10.80
2022-11-17T16:04:08.449Z,10.90
2022-11-17T16:06:41.754Z,10.80
2022-11-17T16:09:09.460Z,10.90
2022-11-17T16:11:37.181Z,10.80
2022-11-17T16:14:05.551Z,10.80
2022-11-17T16:16:37.093Z,10.80
2022-11-17T16:19:05.897Z,10.80
2022-11-17T16:21:32.830Z,10.90
2022-11-17T16:24:01.952Z,10.80
2022-11-17T16:26:29.733Z,10.80
2022-11-17T16:29:04.067Z,10.80
2022-11-17T16:31:34.717Z,10.70
2022-11-17T16:34:10.176Z,10.80
2022-11-17T16:36:40.113Z,10.70
2022-11-17T16:39:13.683Z,10.70
2022-11-17T16:41:43.439Z,10.70
2022-11-17T16:44:13.860Z,10.70
2022-11-17T16:46:47.602Z,10.80
2022-11-17T16:49:16.840Z,10.80
2022-11-17T16:51:53.920Z,10.70
2022-11-17T16:54:21.103Z,10.80
2022-11-17T16:56:48.206Z,10.80
2022-11-17T16:59:15.672Z,10.80
2022-11-17T17:01:42.847Z,10.80
2022-11-17T17:04:12.107Z,10.80
2022-11-17T17:06:44.310Z,10.80
2022-11-17T17:09:14.334Z,10.80
2022-11-17T17:11:44.642Z,10.80
2022-11-17T17:14:14.767Z,10.80
2022-11-17T17:16:43.010Z,10.80
2022-11-17T17:19:14.029Z,10.80
2022-11-17T17:21:43.173Z,10.80
2022-11-17T17:24:10.551Z,10.80
2022-11-17T17:26:39.169Z,10.80
2022-11-17T17:29:07.425Z,10.80
2022-11-17T17:31:40.313Z,10.80
2022-11-17T17:34:08.965Z,10.80
2022-11-17T17:36:38.430Z,10.80
2022-11-17T17:39:06.155Z,10.80
2022-11-17T17:41:38.568Z,10.80
2022-11-17T17:44:07.759Z,10.80
2022-11-17T17:46:37.891Z,10.80
2022-11-17T17:49:06.319Z,10.80
2022-11-17T17:51:55.809Z,10.80
2022-11-17T17:54:23.991Z,10.80
2022-11-17T17:56:50.885Z,10.80
2022-11-17T17:59:19.390Z,10.70
2022-11-17T18:01:47.653Z,10.80
2022-11-17T18:04:16.460Z,10.80
2022-11-17T18:06:47.300Z,10.80
2022-11-17T18:09:18.496Z,10.80
2022-11-17T18:11:47.967Z,10.80
2022-11-17T18:14:17.293Z,10.80
2022-11-17T18:16:43.997Z,10.80
2022-11-17T18:19:15.065Z,10.70
2022-11-17T18:21:42.874Z,10.70
2022-11-17T18:24:11.701Z,10.70
2022-11-17T18:26:41.058Z,10.80
2022-11-17T18:29:15.310Z,10.70
2022-11-17T18:31:42.925Z,10.70
2022-11-17T18:34:23.038Z,10.70
2022-11-17T18:36:52.914Z,10.70
2022-11-17T18:39:21.301Z,10.70
2022-11-17T18:41:52.293Z,10.70
2022-11-17T18:44:19.589Z,10.70
2022-11-17T18:46:47.280Z,10.70
2022-11-17T18:49:14.553Z,10.70
2022-11-17T18:51:41.834Z,10.60
2022-11-17T18:54:12.366Z,10.60
2022-11-17T18:56:40.051Z,10.60
2022-11-17T18:59:12.148Z,10.60
2022-11-17T19:01:44.223Z,10.60
2022-11-17T19:04:14.740Z,10.60
2022-11-17T19:06:41.916Z,10.60
2022-11-17T19:09:15.727Z,10.60
2022-11-17T19:11:43.089Z,10.50
2022-11-17T19:14:09.904Z,10.50
2022-11-17T19:16:41.021Z,10.50
2022-11-17T19:19:10.821Z,10.50
2022-11-17T19:21:37.564Z,10.50
2022-11-17T19:24:04.976Z,10.50
2022-11-17T19:26:36.071Z,10.40
2022-11-17T19:29:16.522Z,10.40
2022-11-17T19:31:44.690Z,10.50
2022-11-17T19:34:12.112Z,10.50
2022-11-17T19:36:39.160Z,10.50
2022-11-17T19:39:06.218Z,10.40
2022-11-17T19:41:39.644Z,10.40
2022-11-17T19:44:09.737Z,10.40
2022-11-17T19:46:40.295Z,10.40
2022-11-17T19:49:12.295Z,10.30
2022-11-17T19:51:39.726Z,10.30
2022-11-17T19:54:14.715Z,10.40
2022-11-17T19:56:41.521Z,10.30
2022-11-17T19:59:16.097Z,10.30
2022-11-17T20:01:43.744Z,10.30
2022-11-17T20:04:10.588Z,10.30
2022-11-17T20:06:39.568Z,10.30
2022-11-17T20:09:11.198Z,10.20
2022-11-17T20:11:39.304Z,10.20
2022-11-17T20:14:06.434Z,10.20
2022-11-17T20:16:33.338Z,10.30
2022-11-17T20:19:04.682Z,10.20
2022-11-17T20:21:31.878Z,10.30
2022-11-17T20:23:59.510Z,10.20
2022-11-17T20:26:30.304Z,10.20
2022-11-17T20:28:58.694Z,10.20
2022-11-17T20:31:29.522Z,10.20
2022-11-17T20:34:00.896Z,10.20
2022-11-17T20:36:31.037Z,10.20
2022-11-17T20:39:02.082Z,10.20
2022-11-17T20:41:30.067Z,10.20
2022-11-17T20:43:59.641Z,10.10
2022-11-17T20:46:27.377Z,10.20
2022-11-17T20:48:56.687Z,10.10
2022-11-17T20:51:25.440Z,10.10
2022-11-17T20:53:52.415Z,10.10
2022-11-17T20:56:20.194Z,10.10
2022-11-17T20:58:47.289Z,10.10
2022-11-17T21:01:22.152Z,10.10
2022-11-17T21:03:49.882Z,10.00
2022-11-17T21:06:17.691Z,10.00
2022-11-17T21:08:45.745Z,10.00
2022-11-17T21:11:36.017Z,10.00
2022-11-17T21:14:05.426Z,10.00
2022-11-17T21:16:33.159Z,9.90
2022-11-17T21:19:00.141Z,9.90
2022-11-17T21:21:26.924Z,9.90
2022-11-17T21:23:55.143Z,9.90
2022-11-17T21:26:24.342Z,10.00
2022-11-17T21:28:52.037Z,9.90
2022-11-17T21:31:28.787Z,9.90
2022-11-17T21:33:59.014Z,9.90
2022-11-17T21:36:28.693Z,9.80
2022-11-17T21:38:57.296Z,9.80
2022-11-17T21:41:28.257Z,9.80
2022-11-17T21:43:59.757Z,9.80
2022-11-17T21:46:34.872Z,9.80
2022-11-17T21:49:02.180Z,9.80
2022-11-17T21:51:37.713Z,9.80
2022-11-17T21:54:08.520Z,9.80
2022-11-17T21:56:36.422Z,9.80
2022-11-17T21:59:09.637Z,9.80
2022-11-17T22:01:37.278Z,9.80
2022-11-17T22:04:04.848Z,9.80
2022-11-17T22:06:31.948Z,9.70
2022-11-17T22:08:59.764Z,9.70
2022-11-17T22:11:36.491Z,9.70
2022-11-17T22:14:16.283Z,9.70
2022-11-17T22:16:49.674Z,9.70
2022-11-17T22:19:18.388Z,9.70
2022-11-17T22:21:48.476Z,9.60
2022-11-17T22:24:16.048Z,9.60
2022-11-17T22:26:44.894Z,9.70
2022-11-17T22:29:17.191Z,9.60
2022-11-17T22:31:46.015Z,9.60
2022-11-17T22:34:13.747Z,9.60
2022-11-17T22:36:40.602Z,9.50
2022-11-17T22:39:07.814Z,9.60
2022-11-17T22:41:34.999Z,9.50
2022-11-17T22:44:02.512Z,9.50
2022-11-17T22:46:29.375Z,9.50
2022-11-17T22:48:56.532Z,9.50
2022-11-17T22:51:44.836Z,9.50
2022-11-17T22:54:11.722Z,9.50
2022-11-17T22:56:39.186Z,9.50
2022-11-17T22:59:06.302Z,9.40
2022-11-17T23:01:33.301Z,9.50
2022-11-17T23:04:00.425Z,9.50
2022-11-17T23:06:27.598Z,9.50
2022-11-17T23:08:56.014Z,9.40
2022-11-17T23:11:36.644Z,9.40
2022-11-17T23:14:06.057Z,9.40
2022-11-17T23:16:33.211Z,9.30
2022-11-17T23:19:00.175Z,9.30
2022-11-17T23:21:27.017Z,9.40
2022-11-17T23:23:54.009Z,9.30
2022-11-17T23:26:21.293Z,9.30
2022-11-17T23:28:48.853Z,9.30
2022-11-17T23:31:17.335Z,9.30
2022-11-17T23:33:47.246Z,9.30
2022-11-17T23:36:20.673Z,9.20
2022-11-17T23:38:49.756Z,9.20
2022-11-17T23:41:20.359Z,9.20
2022-11-17T23:43:51.349Z,9.20
2022-11-17T23:46:23.932Z,9.20
2022-11-17T23:48:51.160Z,9.20
2022-11-17T23:51:26.890Z,9.20
2022-11-17T23:53:53.929Z,9.20
2022-11-17T23:56:21.135Z,9.20
2022-11-17T23:58:48.525Z,9.20
